Le Raizet Airport, Guadeloupe

11:00 PM AST on November 21, 2014 (GMT -0400)
Le Raizet | Change Station
CLOSE
Current Station
Airport
Location: Le Raizet Airport,
Elevation: 26 ft
Nearby Weather Stations

Elev 26 ft 16.27 °N, 61.53 °W | Updated 30 minutes ago

Overcast
Overcast
75 °F
Feels Like 75 °F
N
0
Wind Variable Wind from North

Today
High -- | Low -- °F
--% Chance of Precip.
Yesterday
High -- | Low -- °F
Precip. -- in
6:12 AM 5:31 PM
Waning Crescent, 0% visible
Pressure 29.98 in
Visibility 6.2 miles
Clouds Few 2100 ft
Overcast 17000 ft
Dew Point 73 °F
Humidity 94%
Rainfall 0.00 in
Snow Depth Not available.
UV 0 out of 12
Pollen Not available.
Air Quality Not available.
Flu Activity Not available.
METAR TFFR 220230Z AUTO 00000KT 9999 FEW021/// OVC170/// ///TCU 24/23 Q1015

More Conditions Fewer Conditions

Pressure 29.98 in
Visibility 6.2 miles
Clouds Few 2100 ft
Overcast 17000 ft
Dew Point 73 °F
Humidity 94%
Rainfall 0.00 in
Snow Depth Not available.
UV 0 out of 12
Pollen Not available.
Air Quality Not available.
Flu Activity Not available.
METAR TFFR 220230Z AUTO 00000KT 9999 FEW021/// OVC170/// ///TCU 24/23 Q1015

More Conditions Fewer Conditions

10-Day Weather Forecast

Almanac

Astronomy

Nov. 21, 2014 Rise Set
Actual Time
Civil Twilight
Nautical Twilight
Astronomical Twilight
Moon
Length of Visible Light
Length of Day
Tomorrow will be .
, % of the Moon is Illuminated

Today's Extremes

Country Highs Country Lows

Community

WunderPhotos

Upload Photos

1,772,770 photos uploaded!

WunderBlogs® & News

Nearby

Air Quality

  Air Quality AQ Index Pollutant
Not available.

Snow Depth

Station Depth Elevation

Earthquake Activity

City Distance Mag. Time & Date
Minimum magnitude displayed is 2.5.

Coastal Water Temperatures

Place Temperature

Nearby Weather Stations